Time;durP1;ratioP1;P1;durP2;ratioP2;P2;SDS_P1;SDS_P2;PMS_P1;PMS_P2;Temp;Humidity;BMP_temperature;BMP_pressure;BME280_temperature;BME280_humidity;BME280_pressure;Samples;Min_cycle;Max_cycle;Signal;HPM_P1;HPM_P2
2022/04/29 00:02:17;;;;;;;14.73;7.70;;;;;;;8.78;74.05;102937.19;5037961;28;20063;-64
2022/04/29 00:04:43;;;;;;;15.02;8.93;;;;;;;8.76;74.07;102939.22;5040327;28;20024;-65
2022/04/29 00:07:10;;;;;;;16.00;8.43;;;;;;;8.81;73.29;102936.84;5041519;28;20885;-65
2022/04/29 00:09:36;;;;;;;16.73;7.88;;;;;;;8.66;73.84;102929.44;5037429;28;20054;-64
2022/04/29 00:12:04;;;;;;;16.85;8.20;;;;;;;8.53;74.61;102935.41;5033748;28;20679;-65
2022/04/29 00:14:30;;;;;;;13.90;8.18;;;;;;;8.43;74.76;102932.81;5030617;28;20094;-64
2022/04/29 00:16:55;;;;;;;12.50;7.18;;;;;;;8.68;73.44;102921.94;5041904;28;20067;-64
2022/04/29 00:19:21;;;;;;;16.75;7.75;;;;;;;8.57;73.71;102923.09;5034332;28;20151;-65
2022/04/29 00:21:46;;;;;;;14.30;8.43;;;;;;;8.42;74.46;102924.75;5040596;28;20032;-64
2022/04/29 00:24:11;;;;;;;13.60;7.93;;;;;;;8.46;74.23;102928.84;5031218;28;20430;-65
2022/04/29 00:26:37;;;;;;;19.15;9.00;;;;;;;8.22;75.48;102929.59;5042027;28;20032;-65
2022/04/29 00:29:03;;;;;;;16.67;8.48;;;;;;;8.24;75.54;102931.16;5038851;28;20116;-64
2022/04/29 00:31:28;;;;;;;14.77;8.82;;;;;;;8.21;75.65;102927.88;5039179;28;20092;-64
2022/04/29 00:33:54;;;;;;;17.00;9.35;;;;;;;8.27;75.31;102919.03;5038484;28;20110;-64
2022/04/29 00:36:19;;;;;;;16.05;9.27;;;;;;;8.06;76.67;102928.50;5031354;28;20109;-64
2022/04/29 00:38:45;;;;;;;16.10;9.38;;;;;;;8.22;75.93;102930.47;5037170;28;20060;-64
2022/04/29 00:41:15;;;;;;;16.60;9.13;;;;;;;8.40;74.84;102918.56;5037619;28;20839;-64
2022/04/29 00:43:40;;;;;;;20.45;9.55;;;;;;;8.02;76.51;102927.13;5023343;28;20087;-64
2022/04/29 00:46:08;;;;;;;16.13;9.20;;;;;;;8.10;76.08;102923.53;5036939;28;20032;-64
2022/04/29 00:48:33;;;;;;;17.02;8.95;;;;;;;7.94;77.24;102926.19;5038251;28;20107;-64
2022/04/29 00:50:58;;;;;;;17.15;8.95;;;;;;;8.06;76.23;102916.72;5028958;28;20444;-64
2022/04/29 00:53:26;;;;;;;14.38;8.27;;;;;;;8.12;75.48;102907.84;5043043;28;20037;-64
2022/04/29 00:55:55;;;;;;;14.70;9.03;;;;;;;8.03;76.27;102915.13;5035875;28;20037;-64
2022/04/29 00:58:25;;;;;;;17.15;9.02;;;;;;;7.90;77.13;102920.19;5031816;28;20041;-64
2022/04/29 01:00:50;;;;;;;15.82;8.18;;;;;;;7.92;76.19;102914.56;5030959;28;20032;-64
2022/04/29 01:03:16;;;;;;;16.40;8.48;;;;;;;7.99;76.35;102916.47;5033013;28;20032;-64
2022/04/29 01:05:42;;;;;;;19.50;9.18;;;;;;;7.75;77.85;102914.44;5037429;28;20661;-64
2022/04/29 01:08:08;;;;;;;17.60;10.20;;;;;;;7.75;77.58;102914.44;5031606;28;20116;-64
2022/04/29 01:10:34;;;;;;;18.30;10.02;;;;;;;7.70;78.18;102905.03;5036118;28;20044;-64
2022/04/29 01:13:01;;;;;;;17.30;9.80;;;;;;;7.70;78.34;102908.59;5029043;28;20033;-64
2022/04/29 01:15:28;;;;;;;17.93;9.30;;;;;;;7.71;78.29;102904.88;5030635;28;20040;-64
2022/04/29 01:17:56;;;;;;;20.48;9.07;;;;;;;7.79;77.67;102901.31;5032275;28;20033;-65
2022/04/29 01:20:27;;;;;;;17.63;9.83;;;;;;;7.69;77.91;102908.78;5038908;28;20072;-64
2022/04/29 01:22:52;;;;;;;17.48;7.85;;;;;;;7.90;76.28;102903.78;5037733;28;20033;-65
2022/04/29 01:25:17;;;;;;;15.85;9.07;;;;;;;7.78;76.49;102895.00;5037552;28;20021;-65
2022/04/29 01:27:44;;;;;;;17.27;9.00;;;;;;;7.65;77.24;102889.09;5038640;28;20048;-65
2022/04/29 01:30:12;;;;;;;17.60;9.70;;;;;;;7.71;76.64;102885.72;5040487;28;20108;-64
2022/04/29 01:32:41;;;;;;;16.85;10.00;;;;;;;7.49;78.14;102887.09;5037310;28;20143;-64
2022/04/29 01:35:09;;;;;;;18.13;9.75;;;;;;;7.45;78.18;102883.00;5038572;28;20028;-64
2022/04/29 01:37:35;;;;;;;20.63;8.27;;;;;;;7.64;76.78;102876.44;5038852;28;20041;-64
2022/04/29 01:40:00;;;;;;;18.70;8.55;;;;;;;7.58;77.40;102868.91;5038772;28;20049;-64
2022/04/29 01:42:26;;;;;;;17.05;9.52;;;;;;;7.37;78.48;102873.88;5028454;28;20094;-64
2022/04/29 01:44:52;;;;;;;17.67;9.48;;;;;;;7.38;78.17;102876.44;5025784;28;20029;-64
2022/04/29 01:47:17;;;;;;;18.13;9.05;;;;;;;7.35;78.02;102882.25;5027864;28;20029;-65
2022/04/29 01:49:43;;;;;;;15.80;8.93;;;;;;;7.57;77.00;102874.53;5031735;28;20040;-64
2022/04/29 01:52:08;;;;;;;16.52;8.65;;;;;;;7.42;77.75;102871.53;5027399;28;20522;-64
2022/04/29 01:54:35;;;;;;;18.35;9.32;;;;;;;7.22;78.33;102874.44;5036189;28;20123;-64
2022/04/29 01:57:00;;;;;;;15.10;6.95;;;;;;;7.33;78.09;102867.88;5040959;28;20118;-64
2022/04/29 01:59:27;;;;;;;19.85;9.27;;;;;;;7.37;77.61;102861.06;5034836;28;20052;-64
2022/04/29 02:01:53;;;;;;;19.10;9.77;;;;;;;7.27;77.84;102860.31;5038221;28;20047;-64
2022/04/29 02:04:18;;;;;;;20.08;10.55;;;;;;;6.98;79.67;102869.63;5039326;28;20376;-64
2022/04/29 02:06:43;;;;;;;17.15;10.63;;;;;;;6.99;79.73;102868.66;5038804;28;20025;-64
2022/04/29 02:09:09;;;;;;;17.50;11.10;;;;;;;6.97;79.99;102880.72;5028014;28;20055;-64
2022/04/29 02:11:35;;;;;;;14.65;9.25;;;;;;;7.29;77.99;102883.72;5036673;28;20032;-64
2022/04/29 02:14:01;;;;;;;18.75;9.82;;;;;;;6.98;79.38;102877.84;5034135;28;20029;-64
2022/04/29 02:16:26;;;;;;;18.02;10.98;;;;;;;6.94;79.74;102873.69;5037038;28;20025;-64
2022/04/29 02:18:51;;;;;;;16.67;9.68;;;;;;;7.13;78.71;102869.94;5039659;28;20035;-64
2022/04/29 02:21:17;;;;;;;18.52;9.02;;;;;;;7.26;78.07;102867.66;5037152;28;20490;-64
2022/04/29 02:23:43;;;;;;;18.67;10.40;;;;;;;7.00;79.06;102864.03;5029826;28;20437;-64
2022/04/29 02:26:08;;;;;;;19.40;12.10;;;;;;;6.89;80.04;102866.97;5037205;28;20060;-64
2022/04/29 02:28:34;;;;;;;19.60;10.95;;;;;;;6.84;80.61;102872.06;5039437;28;20694;-64
2022/04/29 02:31:00;;;;;;;22.35;11.50;;;;;;;6.91;79.72;102864.97;5030872;28;20041;-64
2022/04/29 02:33:27;;;;;;;22.88;11.38;;;;;;;6.80;80.65;102867.94;5041474;28;20030;-64
2022/04/29 02:35:52;;;;;;;21.02;10.77;;;;;;;6.81;80.63;102861.47;5039309;28;20029;-64
2022/04/29 02:38:18;;;;;;;15.25;8.45;;;;;;;7.16;78.94;102858.69;5036276;28;20442;-66
2022/04/29 02:40:43;;;;;;;21.52;10.38;;;;;;;6.89;79.67;102851.44;5038241;28;20033;-64
2022/04/29 02:43:08;;;;;;;20.73;8.45;;;;;;;7.02;79.11;102853.78;5032143;28;20385;-64
2022/04/29 02:45:34;;;;;;;25.67;12.88;;;;;;;6.79;80.44;102858.00;5038396;28;20037;-64
2022/04/29 02:47:59;;;;;;;18.17;11.35;;;;;;;6.70;80.99;102854.38;5038168;28;20078;-64
2022/04/29 02:50:25;;;;;;;21.67;12.00;;;;;;;6.78;80.33;102850.84;5040941;28;20035;-64
2022/04/29 02:52:51;;;;;;;21.42;11.45;;;;;;;6.80;80.02;102862.50;5031842;28;20025;-64
2022/04/29 02:55:16;;;;;;;18.65;12.02;;;;;;;6.84;79.91;102867.44;5042577;28;20037;-64
2022/04/29 02:57:41;;;;;;;24.88;12.65;;;;;;;6.62;81.97;102862.47;5032517;28;20661;-64
2022/04/29 03:02:32;;;;;;;22.75;12.75;;;;;;;6.60;81.40;102854.44;5023192;22;20054;-64
2022/04/29 03:04:57;;;;;;;27.10;10.30;;;;;;;6.93;79.70;102854.75;5005577;28;20036;-64
2022/04/29 03:07:22;;;;;;;22.67;11.05;;;;;;;6.73;80.62;102846.69;5006000;28;20459;-64
2022/04/29 03:09:48;;;;;;;22.95;13.45;;;;;;;6.86;79.53;102846.31;5004574;28;20033;-64
2022/04/29 03:12:14;;;;;;;26.73;13.35;;;;;;;6.75;79.91;102852.88;5006329;28;20037;-64
2022/04/29 03:14:40;;;;;;;23.88;12.27;;;;;;;6.86;79.63;102845.47;5004438;28;20192;-64
2022/04/29 03:17:05;;;;;;;23.67;11.52;;;;;;;6.99;78.91;102833.13;5006180;28;20105;-64
2022/04/29 03:19:30;;;;;;;22.92;13.23;;;;;;;6.85;79.77;102832.84;5004581;28;20118;-64
2022/04/29 03:21:56;;;;;;;24.58;11.10;;;;;;;6.71;80.44;102818.72;5005689;28;20030;-64
2022/04/29 03:24:21;;;;;;;19.27;10.55;;;;;;;6.87;79.87;102828.91;5004630;28;20506;-64
2022/04/29 03:26:47;;;;;;;25.98;15.02;;;;;;;6.71;80.37;102826.03;5005147;28;20029;-64
2022/04/29 03:29:12;;;;;;;24.08;12.90;;;;;;;6.47;81.82;102821.19;5005406;28;20396;-64
2022/04/29 03:31:38;;;;;;;25.35;14.90;;;;;;;6.44;82.57;102821.53;5006278;28;20025;-64
2022/04/29 03:34:03;;;;;;;24.63;13.88;;;;;;;6.53;81.85;102826.03;5006123;28;20035;-64
2022/04/29 03:36:28;;;;;;;27.15;13.20;;;;;;;6.57;81.83;102827.44;5000767;28;20109;-64
2022/04/29 03:38:54;;;;;;;23.77;14.05;;;;;;;6.51;82.10;102841.72;5004683;28;20144;-63
2022/04/29 03:41:19;;;;;;;27.00;15.52;;;;;;;6.42;82.58;102843.50;5005833;28;20038;-64
2022/04/29 03:43:45;;;;;;;28.77;15.10;;;;;;;6.54;81.79;102843.28;5005962;28;20125;-64
2022/04/29 03:46:11;;;;;;;26.30;13.43;;;;;;;6.48;82.30;102839.28;5003328;28;20034;-64
2022/04/29 03:51:20;;;;;;;28.27;15.40;;;;;;;6.38;82.73;102842.09;5004479;28;20635;-64
2022/04/29 03:53:47;;;;;;;27.23;15.13;;;;;;;6.44;82.59;102843.38;5006202;28;20120;-64
2022/04/29 03:56:12;;;;;;;29.17;15.30;;;;;;;6.39;82.79;102841.09;5010854;28;20029;-64
2022/04/29 03:58:37;;;;;;;27.00;11.18;;;;;;;6.70;81.15;102827.91;5025920;28;20041;-64
2022/04/29 04:01:02;;;;;;;30.80;15.70;;;;;;;6.41;82.53;102830.88;5014180;28;20042;-64
2022/04/29 04:03:28;;;;;;;30.50;15.07;;;;;;;6.48;82.35;102831.09;5004441;28;20383;-64
2022/04/29 04:08:37;;;;;;;28.27;14.80;;;;;;;6.46;82.37;102831.25;5005696;28;20800;-64
2022/04/29 04:11:02;;;;;;;36.90;17.35;;;;;;;6.39;82.83;102824.72;5005449;28;20062;-64
2022/04/29 04:13:27;;;;;;;33.17;17.10;;;;;;;6.29;83.44;102836.72;5005437;28;20297;-64
2022/04/29 04:15:52;;;;;;;31.92;16.63;;;;;;;6.41;82.17;102825.41;5003223;28;20105;-64
2022/04/29 04:18:18;;;;;;;31.90;17.23;;;;;;;6.29;83.32;102834.00;5004387;28;20033;-64
2022/04/29 04:20:43;;;;;;;35.75;17.15;;;;;;;6.33;83.33;102832.66;5004876;28;20461;-65
2022/04/29 04:23:09;;;;;;;31.05;17.50;;;;;;;6.27;83.62;102830.53;5005531;28;20091;-64
2022/04/29 04:25:34;;;;;;;31.52;16.45;;;;;;;6.29;83.18;102815.75;5003298;28;20033;-64
2022/04/29 04:27:59;;;;;;;33.15;17.23;;;;;;;6.34;82.85;102818.88;5005478;28;20401;-64
2022/04/29 04:30:25;;;;;;;33.85;17.17;;;;;;;6.24;83.47;102824.38;5003907;28;20068;-64
2022/04/29 04:32:50;;;;;;;34.33;19.02;;;;;;;6.28;83.22;102821.34;5005656;28;20104;-64
2022/04/29 04:35:17;;;;;;;35.53;18.45;;;;;;;6.34;82.80;102821.59;5001588;28;20030;-64
2022/04/29 04:37:42;;;;;;;30.25;17.02;;;;;;;6.27;83.40;102825.94;5005647;28;20595;-64
2022/04/29 04:40:09;;;;;;;36.15;18.33;;;;;;;6.21;83.74;102832.88;5005766;28;20038;-64
2022/04/29 04:42:42;;;;;;;32.40;17.10;;;;;;;6.33;82.96;102832.66;5019210;28;20051;-64
2022/04/29 04:45:08;;;;;;;37.15;18.83;;;;;;;6.24;83.30;102827.13;5002594;28;20034;-64
2022/04/29 04:47:33;;;;;;;36.67;17.55;;;;;;;6.34;82.75;102820.75;5003996;28;20436;-63
2022/04/29 04:49:58;;;;;;;34.10;17.63;;;;;;;6.34;82.65;102815.28;5000838;28;20045;-64
2022/04/29 04:52:24;;;;;;;38.10;15.63;;;;;;;6.44;82.14;102814.19;5002719;28;20080;-63
2022/04/29 04:54:49;;;;;;;33.95;18.58;;;;;;;6.22;83.26;102818.22;5003387;28;20816;-64
2022/04/29 04:57:14;;;;;;;36.78;19.27;;;;;;;6.16;83.81;102818.81;5007288;28;20093;-63
2022/04/29 04:59:39;;;;;;;26.90;15.60;;;;;;;6.21;83.48;102821.09;5003763;28;20025;-64
2022/04/29 05:02:05;;;;;;;40.42;18.98;;;;;;;6.23;83.25;102817.22;5002568;28;20155;-63
2022/04/29 05:04:30;;;;;;;36.67;17.30;;;;;;;6.27;83.11;102815.03;5002495;28;20044;-63
2022/04/29 05:06:56;;;;;;;36.22;19.02;;;;;;;6.20;83.44;102822.13;5000705;28;20026;-63
2022/04/29 05:09:21;;;;;;;31.58;15.48;;;;;;;6.35;82.91;102819.72;5002966;28;20018;-64
2022/04/29 05:11:46;;;;;;;33.67;17.17;;;;;;;6.31;82.59;102815.59;5002799;28;20033;-63
2022/04/29 05:14:11;;;;;;;36.65;18.50;;;;;;;6.40;82.26;102820.97;5002500;28;20499;-64
2022/04/29 05:16:37;;;;;;;33.80;17.42;;;;;;;6.33;82.67;102813.53;5002165;28;20040;-63
2022/04/29 05:19:02;;;;;;;33.72;17.42;;;;;;;6.33;82.65;102822.59;5002654;28;20053;-63
2022/04/29 05:21:27;;;;;;;35.80;18.02;;;;;;;6.19;83.96;102823.13;5002573;28;20067;-63
2022/04/29 05:23:53;;;;;;;36.53;17.45;;;;;;;6.25;83.18;102827.97;5003645;28;20030;-63
2022/04/29 05:26:18;;;;;;;35.45;17.20;;;;;;;6.46;81.92;102831.25;5001002;28;20038;-63
2022/04/29 05:28:43;;;;;;;37.08;17.67;;;;;;;6.28;83.33;102829.53;5001468;28;20034;-63
2022/04/29 05:31:09;;;;;;;33.20;17.58;;;;;;;6.29;83.31;102829.38;5001242;28;20026;-63
2022/04/29 05:33:37;;;;;;;33.72;17.73;;;;;;;6.31;82.89;102830.09;5002667;28;20022;-63
2022/04/29 05:36:04;;;;;;;35.53;16.73;;;;;;;6.39;82.64;102832.91;5002463;28;20018;-63
2022/04/29 05:42:14;;;;;;;41.25;18.83;;;;;;;6.30;83.35;102835.69;5000639;28;20494;-64
2022/04/29 05:43:59;;;;;;;32.80;13.93;;;;;;;6.63;80.84;102828.69;4982711;28;20381;-63
2022/04/29 05:46:24;;;;;;;36.85;17.90;;;;;;;6.41;82.65;102824.56;4995623;28;20117;-63
2022/04/29 05:48:50;;;;;;;39.70;20.00;;;;;;;6.57;81.60;102827.44;5000603;28;20033;-63
2022/04/29 05:51:15;;;;;;;41.45;19.35;;;;;;;6.41;82.75;102821.81;5000497;28;20026;-64
2022/04/29 05:53:40;;;;;;;35.40;16.48;;;;;;;6.59;81.74;102828.16;5001219;28;20435;-63
2022/04/29 05:56:06;;;;;;;39.40;18.88;;;;;;;6.50;82.48;102824.50;5004027;28;20048;-63
2022/04/29 05:58:31;;;;;;;41.05;17.90;;;;;;;6.58;82.08;102828.31;4999818;28;20041;-63
2022/04/29 06:00:58;;;;;;;42.00;18.17;;;;;;;6.67;81.49;102830.09;4999691;28;20398;-63
2022/04/29 06:03:23;;;;;;;41.08;18.30;;;;;;;6.49;82.75;102835.56;5001267;28;20028;-63
2022/04/29 06:05:48;;;;;;;40.65;18.20;;;;;;;6.56;82.70;102841.25;5001391;28;20046;-64
2022/04/29 06:08:14;;;;;;;42.78;19.88;;;;;;;6.54;83.44;102846.88;5000716;28;20026;-63
2022/04/29 06:10:39;;;;;;;41.78;18.42;;;;;;;6.66;82.47;102848.34;5002114;28;20026;-63
2022/04/29 06:13:05;;;;;;;41.03;19.98;;;;;;;6.64;83.15;102849.50;5000752;28;20416;-63
2022/04/29 06:15:31;;;;;;;38.35;18.38;;;;;;;6.76;82.56;102851.88;5001232;28;20022;-63
2022/04/29 06:17:56;;;;;;;41.95;19.90;;;;;;;6.82;82.35;102852.25;4999544;28;20030;-63
2022/04/29 06:20:21;;;;;;;38.55;16.05;;;;;;;7.09;80.15;102843.94;5000652;28;20491;-64
2022/04/29 06:22:47;;;;;;;41.92;19.30;;;;;;;7.02;80.72;102845.59;5002105;28;20038;-64
2022/04/29 06:25:13;;;;;;;44.70;19.98;;;;;;;6.89;82.29;102851.44;5000165;28;20104;-63
2022/04/29 06:27:38;;;;;;;44.13;19.92;;;;;;;7.02;81.26;102854.66;5001569;28;20481;-63
2022/04/29 06:30:04;;;;;;;44.33;20.25;;;;;;;7.06;81.41;102854.34;4999823;28;20105;-64
2022/04/29 06:32:30;;;;;;;43.05;21.02;;;;;;;7.10;81.39;102861.22;5001000;28;20038;-63
2022/04/29 06:34:55;;;;;;;39.50;20.48;;;;;;;7.10;82.44;102856.59;5001259;28;20090;-63
2022/04/29 06:37:21;;;;;;;45.17;21.20;;;;;;;7.22;83.23;102859.94;5001289;28;20065;-64
2022/04/29 06:39:46;;;;;;;51.92;20.55;;;;;;;7.35;81.10;102859.50;5001347;28;20476;-64
2022/04/29 06:42:11;;;;;;;41.58;18.33;;;;;;;7.51;79.47;102857.75;4999587;28;20133;-63
2022/04/29 06:44:37;;;;;;;48.22;20.23;;;;;;;7.42;81.44;102861.44;4997264;28;20018;-64
2022/04/29 06:47:03;;;;;;;44.63;19.40;;;;;;;7.48;80.47;102859.94;5002576;28;20109;-64
2022/04/29 06:49:28;;;;;;;44.58;20.40;;;;;;;7.54;80.47;102853.81;4999053;28;20665;-65
2022/04/29 06:51:53;;;;;;;47.80;18.90;;;;;;;7.62;79.91;102855.75;5001871;28;20030;-65
2022/04/29 06:54:18;;;;;;;42.30;20.95;;;;;;;7.69;79.38;102863.13;4999150;28;20464;-65
2022/04/29 06:56:44;;;;;;;45.10;18.98;;;;;;;7.76;78.81;102864.22;5001869;28;20042;-64
2022/04/29 06:59:09;;;;;;;44.05;19.77;;;;;;;7.83;78.96;102874.50;5000287;28;20034;-65
2022/04/29 07:01:34;;;;;;;48.20;22.23;;;;;;;7.85;79.55;102873.31;5000598;28;20046;-65
2022/04/29 07:03:59;;;;;;;52.35;21.83;;;;;;;8.03;78.13;102868.63;4996728;28;20045;-65
2022/04/29 07:06:25;;;;;;;45.10;21.15;;;;;;;8.10;78.18;102868.81;5001071;28;20022;-65
2022/04/29 07:08:50;;;;;;;45.53;20.10;;;;;;;8.23;77.54;102868.34;5001321;28;20042;-64
2022/04/29 07:11:16;;;;;;;43.97;20.13;;;;;;;8.36;77.44;102871.50;5000544;28;20022;-65
2022/04/29 07:13:43;;;;;;;37.92;17.15;;;;;;;8.56;75.28;102874.81;5012600;28;20457;-64
2022/04/29 07:16:09;;;;;;;44.05;20.85;;;;;;;8.48;77.07;102869.31;5004051;28;20130;-64
2022/04/29 07:18:36;;;;;;;47.10;19.40;;;;;;;8.80;74.59;102869.38;5005852;28;20036;-64
2022/04/29 07:21:01;;;;;;;44.90;19.67;;;;;;;8.63;74.91;102862.16;5004511;28;20207;-64
2022/04/29 07:23:26;;;;;;;45.85;18.15;;;;;;;8.79;74.29;102864.91;5004870;28;20033;-64
2022/04/29 07:25:51;;;;;;;36.53;14.55;;;;;;;8.81;74.04;102867.47;5003054;28;20029;-64
2022/04/29 07:28:17;;;;;;;42.88;18.80;;;;;;;8.78;73.75;102860.47;5003938;28;20037;-64
2022/04/29 07:30:42;;;;;;;33.85;14.93;;;;;;;8.94;73.28;102856.03;5004912;28;20034;-64
2022/04/29 07:33:07;;;;;;;44.83;19.10;;;;;;;8.87;73.80;102863.19;5004733;28;20265;-65
2022/04/29 07:43:51;;;;;;;38.53;19.42;;;;;;;9.54;73.28;102858.38;4995169;28;20065;-65
2022/04/29 07:46:17;;;;;;;43.58;20.60;;;;;;;9.59;73.90;102865.06;5003060;28;20784;-65
2022/04/29 07:48:42;;;;;;;49.38;20.38;;;;;;;9.65;71.96;102851.66;5001309;28;20022;-65
2022/04/29 07:51:07;;;;;;;46.00;18.67;;;;;;;9.79;71.00;102853.69;5000957;28;22284;-66
2022/04/29 07:53:34;;;;;;;42.58;20.13;;;;;;;9.80;72.34;102845.28;4996303;28;20499;-65
2022/04/29 07:55:59;;;;;;;52.08;23.20;;;;;;;10.05;72.15;102845.19;5002591;28;20321;-66
2022/04/29 07:58:25;;;;;;;45.33;21.20;;;;;;;10.31;71.39;102844.91;5003566;28;20171;-65
2022/04/29 08:00:50;;;;;;;48.97;21.27;;;;;;;10.65;72.17;102845.38;5003157;28;20041;-65
2022/04/29 08:03:15;;;;;;;45.97;20.30;;;;;;;10.83;70.34;102853.31;5004136;28;20056;-65
2022/04/29 08:05:41;;;;;;;45.80;19.20;;;;;;;10.95;68.32;102855.63;5002898;28;20033;-65
2022/04/29 08:08:06;;;;;;;39.40;19.90;;;;;;;10.98;70.68;102855.28;5001984;28;20042;-65
2022/04/29 08:10:32;;;;;;;47.75;19.80;;;;;;;11.03;68.34;102863.81;4998947;28;20046;-65
2022/04/29 08:12:59;;;;;;;46.28;20.77;;;;;;;11.02;68.25;102870.38;4998366;28;20496;-65
2022/04/29 08:15:28;;;;;;;45.97;19.45;;;;;;;11.22;66.72;102867.97;4998605;28;20030;-66
2022/04/29 08:17:54;;;;;;;42.65;19.38;;;;;;;11.12;66.94;102873.72;5004597;28;20495;-65
2022/04/29 08:20:19;;;;;;;43.92;21.02;;;;;;;10.98;67.65;102869.88;4997325;28;20050;-65
2022/04/29 08:22:45;;;;;;;45.30;21.08;;;;;;;11.01;68.64;102871.41;4993022;28;20033;-65
2022/04/29 08:25:10;;;;;;;48.50;21.40;;;;;;;11.07;68.00;102867.91;5004290;28;20105;-66
2022/04/29 08:27:35;;;;;;;40.63;19.55;;;;;;;11.19;65.77;102860.94;5001298;28;20117;-65
2022/04/29 08:30:01;;;;;;;52.67;21.23;;;;;;;10.99;67.62;102851.47;5003589;28;20121;-65
2022/04/29 08:32:27;;;;;;;47.53;18.48;;;;;;;11.10;66.66;102854.66;4996967;28;20027;-66
2022/04/29 08:34:52;;;;;;;47.60;21.33;;;;;;;10.99;68.41;102862.47;5002412;28;20072;-65
2022/04/29 08:37:18;;;;;;;47.88;20.77;;;;;;;11.08;67.58;102858.63;5000856;28;20129;-66
2022/04/29 08:39:44;;;;;;;45.75;19.00;;;;;;;11.05;66.85;102867.22;5004193;28;20029;-65
2022/04/29 08:42:10;;;;;;;42.35;20.65;;;;;;;10.96;67.91;102868.34;4999822;28;20498;-62
2022/04/29 08:44:39;;;;;;;49.03;21.25;;;;;;;10.98;68.96;102878.13;5002352;28;20100;-66
2022/04/29 08:47:08;;;;;;;45.58;19.70;;;;;;;11.00;68.40;102866.94;5001459;28;20033;-68
2022/04/29 08:49:34;;;;;;;41.38;19.48;;;;;;;11.03;66.93;102870.19;5000771;28;20092;-67
2022/04/29 08:52:00;;;;;;;44.50;20.05;;;;;;;10.98;66.90;102869.03;4997754;28;20080;-67
2022/04/29 09:00:00;;;;;;;39.35;15.52;;;;;;;11.42;65.35;102850.75;5004131;28;20419;-67
2022/04/29 09:02:27;;;;;;;42.63;19.88;;;;;;;11.08;66.90;102858.63;5002033;28;20049;-67
2022/04/29 09:04:53;;;;;;;38.92;16.25;;;;;;;11.25;65.68;102862.06;5003741;28;20091;-67
2022/04/29 09:07:19;;;;;;;44.83;19.88;;;;;;;11.05;66.47;102867.22;5003632;28;20123;-67
2022/04/29 09:09:44;;;;;;;47.30;22.60;;;;;;;10.95;68.55;102864.75;5005492;28;20052;-67
2022/04/29 09:12:16;;;;;;;44.85;22.75;;;;;;;11.15;67.59;102860.47;5004015;28;20520;-67
2022/04/29 09:14:41;;;;;;;47.80;19.50;;;;;;;11.33;66.79;102859.25;5003410;28;20030;-67
2022/04/29 09:17:25;;;;;;;42.78;21.13;;;;;;;11.34;67.24;102867.31;5003089;28;20036;-67
2022/04/29 09:19:50;;;;;;;43.80;20.63;;;;;;;11.55;68.85;102863.00;5002883;28;20021;-67
2022/04/29 09:22:16;;;;;;;44.13;18.45;;;;;;;11.68;65.35;102852.19;5002833;28;20113;-67
2022/04/29 09:24:41;;;;;;;41.10;19.98;;;;;;;11.55;66.39;102847.31;5005021;28;20026;-66
2022/04/29 09:27:06;;;;;;;42.33;21.20;;;;;;;11.86;66.73;102849.06;5003393;28;20032;-66
2022/04/29 09:29:41;;;;;;;43.88;19.85;;;;;;;12.09;65.50;102846.22;5003259;28;20595;-66
2022/04/29 09:32:07;;;;;;;42.70;19.80;;;;;;;12.18;64.33;102848.69;5003574;28;20535;-66
2022/04/29 09:34:54;;;;;;;42.88;19.95;;;;;;;12.29;65.82;102860.25;5003719;28;20028;-66
2022/04/29 09:37:21;;;;;;;40.63;21.52;;;;;;;12.35;65.08;102852.06;5002559;28;20087;-66
2022/04/29 09:40:03;;;;;;;43.93;20.67;;;;;;;12.57;63.05;102846.56;5002276;28;20721;-66
2022/04/29 09:42:37;;;;;;;46.70;21.00;;;;;;;12.66;62.90;102859.19;5003309;28;20034;-66
2022/04/29 09:45:14;;;;;;;44.35;21.73;;;;;;;12.94;62.58;102873.09;5003533;28;20040;-66
2022/04/29 09:47:40;;;;;;;44.78;22.20;;;;;;;12.95;62.33;102872.03;5003291;28;20346;-66
2022/04/29 09:50:05;;;;;;;48.25;21.77;;;;;;;12.92;62.71;102862.22;5003733;28;20026;-66
2022/04/29 09:52:31;;;;;;;46.42;21.52;;;;;;;12.89;62.00;102854.38;5001651;28;20026;-66
2022/04/29 09:55:18;;;;;;;42.97;20.08;;;;;;;12.76;63.71;102868.00;5002810;28;20040;-66
2022/04/29 09:57:52;;;;;;;44.30;21.38;;;;;;;12.64;63.05;102869.56;5001172;28;20096;-66
2022/04/29 10:00:18;;;;;;;38.47;19.60;;;;;;;12.48;61.93;102861.56;4983218;28;20026;-66
2022/04/29 10:02:43;;;;;;;47.22;20.38;;;;;;;12.36;63.26;102852.91;4984022;28;20041;-66
2022/04/29 10:05:09;;;;;;;43.92;20.67;;;;;;;12.37;64.84;102857.41;4983988;28;20424;-66
2022/04/29 10:07:35;;;;;;;46.80;19.48;;;;;;;12.34;64.50;102855.03;4984411;28;20097;-66
2022/04/29 10:10:03;;;;;;;40.92;20.05;;;;;;;12.37;65.35;102846.38;5001541;28;20034;-66
2022/04/29 10:12:29;;;;;;;39.10;19.98;;;;;;;12.41;65.86;102850.44;5002369;28;20025;-66
2022/04/29 10:15:05;;;;;;;37.08;19.13;;;;;;;12.44;65.90;102859.16;5001181;28;20100;-67
2022/04/29 10:23:07;;;;;;;44.83;18.98;;;;;;;11.97;66.01;102839.50;5001718;28;20108;-65
2022/04/29 10:25:33;;;;;;;;;;;;;;;12.08;64.97;102844.53;5000041;28;20029;-66
2022/04/29 10:28:02;;;;;;;40.70;18.70;;;;;;;12.11;64.63;102835.84;5000993;28;19951;-66
2022/04/29 10:30:29;;;;;;;41.90;19.65;;;;;;;12.18;65.02;102842.31;5001136;28;20092;-66
2022/04/29 10:33:10;;;;;;;38.70;19.00;;;;;;;12.24;65.39;102838.78;5001856;28;20064;-65
2022/04/29 10:35:53;;;;;;;41.20;19.02;;;;;;;12.38;65.32;102842.56;4995713;28;20042;-66
2022/04/29 10:38:39;;;;;;;39.30;16.35;;;;;;;12.49;63.10;102832.94;5000070;28;20163;-66
2022/04/29 10:41:15;;;;;;;35.50;16.80;;;;;;;12.36;62.68;102840.00;5002000;28;20057;-66
2022/04/29 10:43:50;;;;;;;40.65;19.05;;;;;;;12.18;64.30;102831.31;5001433;28;20034;-65
2022/04/29 10:46:39;;;;;;;42.42;18.08;;;;;;;12.33;65.48;102834.88;5006590;28;20045;-65
2022/04/29 10:49:30;;;;;;;40.45;18.85;;;;;;;12.64;62.14;102833.75;5007350;28;20026;-66
2022/04/29 10:51:59;;;;;;;38.55;17.27;;;;;;;12.38;63.94;102824.13;5006714;28;20037;-66
2022/04/29 10:54:33;;;;;;;44.40;19.52;;;;;;;12.51;66.22;102817.91;5004868;28;20108;-66
2022/04/29 10:57:02;;;;;;;41.67;18.60;;;;;;;12.60;62.97;102824.16;5005834;28;20045;-66
2022/04/29 10:59:28;;;;;;;39.80;18.52;;;;;;;12.61;62.28;102821.19;5007731;28;20498;-66
2022/04/29 11:02:08;;;;;;;38.90;17.42;;;;;;;12.61;63.18;102820.34;5005441;28;20069;-66
2022/04/29 11:04:34;;;;;;;39.22;18.42;;;;;;;12.60;63.25;102825.00;5002655;28;20034;-66
2022/04/29 11:07:00;;;;;;;33.63;18.17;;;;;;;12.66;62.06;102815.09;4994348;28;20149;-66
2022/04/29 11:09:36;;;;;;;35.97;15.82;;;;;;;12.70;60.58;102816.41;5000584;28;20737;-66
2022/04/29 11:12:03;;;;;;;34.83;16.42;;;;;;;12.63;62.50;102821.00;5006245;28;20372;-67
2022/04/29 11:14:29;;;;;;;31.65;16.10;;;;;;;12.80;61.06;102825.19;5004000;28;20065;-66
2022/04/29 11:17:07;;;;;;;33.33;15.93;;;;;;;12.80;61.86;102816.94;5004065;28;20053;-66
2022/04/29 11:19:40;;;;;;;27.35;12.98;;;;;;;13.07;59.35;102815.25;5001365;28;20122;-66
2022/04/29 11:24:51;;;;;;;33.45;16.27;;;;;;;12.78;62.40;102816.28;4996927;28;20045;-66
2022/04/29 11:27:27;;;;;;;34.47;15.85;;;;;;;12.89;60.17;102801.97;5004718;28;20473;-66
2022/04/29 11:29:54;;;;;;;29.85;14.27;;;;;;;12.63;60.72;102801.72;5004557;28;20034;-66
2022/04/29 11:32:23;;;;;;;24.75;11.57;;;;;;;12.84;60.05;102803.59;5004922;28;20052;-66
2022/04/29 11:34:53;;;;;;;28.35;13.43;;;;;;;12.92;58.11;102793.28;4986360;28;20428;-66
2022/04/29 11:37:23;;;;;;;29.25;13.18;;;;;;;13.03;57.74;102810.34;4985505;28;20038;-66
2022/04/29 11:39:49;;;;;;;27.00;12.52;;;;;;;13.16;56.17;102803.03;4986090;28;20078;-66
2022/04/29 11:42:17;;;;;;;25.95;13.90;;;;;;;13.07;57.09;102806.97;4996850;28;20030;-66
2022/04/29 11:44:45;;;;;;;30.08;14.00;;;;;;;13.08;56.92;102807.88;5004988;28;20018;-65
2022/04/29 11:47:11;;;;;;;27.98;12.98;;;;;;;13.29;54.90;102795.97;5005145;28;20034;-66
2022/04/29 11:49:36;;;;;;;30.63;12.88;;;;;;;13.40;57.46;102796.25;4997167;28;20707;-66